Diamond Bluff, Wisconsin
Current Conditions -  °F | °C
As of 2:31 PM on Monday 22 Dec 2014 (Local Time) from KRGK Reporting Station
Drizzle Drizzle  
Wind Chill: 30°   Ceiling: 2000
Heat Index: 37°   Visibility: 4mi
Dew Point: 36°   Wind: 12mph
Humidity: 93%   Direction: 130°SE
Pressure: 29.61"   Gusts: NA
Location:  44.6468°N, 92.567°W
Report Text: KRGK 222031Z AUTO 13010KT 4SM -DZ BKN020 03/02 A2961 RMK AO2
Loading
Personal Weather Stations






























Interactive Weather Map New forecast layout! Learn more

10-Day Weather Forecast

Advertisements
Track Severe Weather on mobile